Time,TemperatureF,DewpointF,PressureIn,WindDirection,WindDirectionDegrees,WindSpeedMPH,WindSpeedGustMPH,Humidity,HourlyPrecipIn,Conditions,Clouds,dailyrainin,SoftwareType,DateUTC
2013-05-16 00:42:00,57.0,55.0,-100.00,ESE,122,0.0,0.0,92,-99.99,,,0.00,,2013-05-16 04:42:00,
2013-05-16 00:53:00,57.0,55.0,-100.00,ESE,122,0.0,0.0,92,-99.99,,,0.00,,2013-05-16 04:53:00,
2013-05-16 01:42:00,55.0,54.0,-100.00,ESE,110,0.0,0.0,95,-99.99,,,0.00,,2013-05-16 05:42:00,
2013-05-16 01:52:00,55.0,54.0,-100.00,ESE,110,0.0,0.0,95,-99.99,,,0.00,,2013-05-16 05:52:00,
2013-05-16 02:43:00,54.0,53.0,-100.00,NNE,33,0.0,0.0,96,-99.99,,,0.00,,2013-05-16 06:43:00,
2013-05-16 02:53:00,54.0,53.0,-100.00,NNE,33,0.0,0.0,96,-99.99,,,0.00,,2013-05-16 06:53:00,
2013-05-16 03:44:00,53.0,52.0,-100.00,NNE,26,0.0,0.0,97,-99.99,,,0.00,,2013-05-16 07:44:00,
2013-05-16 03:54:00,53.0,52.0,-100.00,NNE,26,0.0,0.0,97,-99.99,,,0.00,,2013-05-16 07:54:00,
2013-05-16 04:45:00,53.0,52.0,-100.00,WSW,255,0.0,0.0,97,-99.99,,,0.00,,2013-05-16 08:45:00,
2013-05-16 04:55:00,53.0,52.0,-100.00,WSW,255,0.0,0.0,97,-99.99,,,0.00,,2013-05-16 08:55:00,
2013-05-16 05:45:00,52.0,51.0,-100.00,WSW,241,0.0,0.0,98,-99.99,,,0.00,,2013-05-16 09:45:00,
2013-05-16 05:55:00,52.0,51.0,-100.00,WSW,241,0.0,0.0,98,-99.99,,,0.00,,2013-05-16 09:55:00,
2013-05-16 06:45:00,51.0,50.0,-100.00,SSW,212,0.0,0.0,98,-99.99,,,0.00,,2013-05-16 10:45:00,
2013-05-16 06:56:00,51.0,50.0,-100.00,SSW,212,0.0,0.0,98,-99.99,,,0.00,,2013-05-16 10:56:00,
2013-05-16 07:46:00,52.0,52.0,-100.00,SW,226,0.0,0.0,99,-99.99,,,-99.99,,2013-05-16 11:46:00,
2013-05-16 07:57:00,52.0,52.0,-100.00,SW,226,0.0,0.0,99,-99.99,,,-99.99,,2013-05-16 11:57:00,
2013-05-16 08:45:00,56.0,56.0,-100.00,West,259,0.0,1.0,99,-99.99,,,0.00,,2013-05-16 12:45:00,
2013-05-16 08:53:00,56.0,56.0,-100.00,West,259,0.0,1.0,99,-99.99,,,0.00,,2013-05-16 12:53:00,
2013-05-16 09:16:00,61.0,60.0,-100.00,NNW,327,1.0,3.0,97,-99.99,,,0.00,,2013-05-16 13:16:00,
2013-05-16 09:44:00,61.0,60.0,-100.00,NNW,327,1.0,3.0,97,-99.99,,,0.00,,2013-05-16 13:44:00,
2013-05-16 09:55:00,61.0,60.0,-100.00,NNW,327,1.0,3.0,97,-99.99,,,0.00,,2013-05-16 13:55:00,
2013-05-16 10:05:00,61.0,60.0,-100.00,NNW,327,1.0,3.0,97,-99.99,,,0.00,,2013-05-16 14:05:00,
2013-05-16 10:16:00,69.0,59.0,-100.00,North,10,3.0,9.0,70,0.00,,,0.00,,2013-05-16 14:16:00,
2013-05-16 10:47:00,69.0,59.0,-100.00,North,10,3.0,9.0,70,0.00,,,0.00,,2013-05-16 14:47:00,
2013-05-16 10:56:00,69.0,59.0,-100.00,North,10,3.0,9.0,70,0.00,,,0.00,,2013-05-16 14:56:00,
2013-05-16 11:08:00,69.0,59.0,-100.00,North,10,3.0,9.0,70,0.00,,,0.00,,2013-05-16 15:08:00,
2013-05-16 11:16:00,75.0,61.0,-100.00,WSW,245,4.0,10.0,61,0.00,,,0.00,,2013-05-16 15:16:00,
2013-05-16 11:50:00,75.0,61.0,-100.00,WSW,245,4.0,10.0,61,0.00,,,0.00,,2013-05-16 15:50:00,
2013-05-16 12:01:00,75.0,61.0,-100.00,WSW,245,4.0,10.0,61,0.00,,,0.00,,2013-05-16 16:01:00,
2013-05-16 12:09:00,75.0,61.0,-100.00,WSW,245,4.0,10.0,61,0.00,,,0.00,,2013-05-16 16:09:00,
2013-05-16 12:16:00,75.0,58.0,-100.00,NW,322,5.0,13.0,56,0.00,,,0.00,,2013-05-16 16:16:00,
2013-05-16 12:51:00,75.0,58.0,-100.00,NW,322,5.0,13.0,56,0.00,,,0.00,,2013-05-16 16:51:00,
2013-05-16 13:01:00,75.0,58.0,-100.00,NW,322,5.0,13.0,56,0.00,,,0.00,,2013-05-16 17:01:00,
2013-05-16 13:11:00,75.0,58.0,-100.00,NW,322,5.0,13.0,56,0.00,,,0.00,,2013-05-16 17:11:00,
2013-05-16 13:16:00,75.0,58.0,-100.00,NNW,338,4.0,14.0,56,0.00,,,-99.99,,2013-05-16 17:16:00,
2013-05-16 13:50:00,-999.0,-99.9,-100.00,NNW,338,4.0,14.0,56,0.00,,,-99.99,,2013-05-16 17:50:00,
2013-05-16 14:00:00,-999.0,-99.9,-100.00,NNW,338,4.0,14.0,56,0.00,,,-99.99,,2013-05-16 18:00:00,
2013-05-16 14:10:00,75.0,58.0,-100.00,NNW,338,4.0,14.0,56,0.00,,,-99.99,,2013-05-16 18:10:00,
2013-05-16 14:16:00,78.0,62.0,-100.00,SSW,207,3.0,11.0,57,0.00,,,0.00,,2013-05-16 18:16:00,
2013-05-16 14:50:00,-999.0,-99.9,-100.00,SSW,207,3.0,11.0,57,0.00,,,0.00,,2013-05-16 18:50:00,
2013-05-16 15:01:00,-999.0,-99.9,-100.00,SSW,207,3.0,11.0,57,0.00,,,0.00,,2013-05-16 19:01:00,
2013-05-16 15:11:00,78.0,-99.9,-100.00,SSW,207,3.0,11.0,57,0.00,,,0.00,,2013-05-16 19:11:00,
2013-05-16 15:16:00,78.0,-99.9,-100.00,WSW,246,4.0,12.0,55,0.00,,,0.00,,2013-05-16 19:16:00,
2013-05-16 15:51:00,-999.0,-99.9,-100.00,WSW,246,4.0,12.0,55,0.00,,,0.00,,2013-05-16 19:51:00,
2013-05-16 16:01:00,-999.0,-99.9,-100.00,WSW,246,4.0,12.0,55,0.00,,,0.00,,2013-05-16 20:01:00,
2013-05-16 16:10:00,-999.0,-99.9,-100.00,WSW,246,4.0,12.0,55,0.00,,,0.00,,2013-05-16 20:10:00,
2013-05-16 16:16:00,78.0,-99.9,-100.00,North,9,4.0,11.0,59,0.00,,,0.00,,2013-05-16 20:16:00,
2013-05-16 16:51:00,78.0,62.0,-100.00,North,9,4.0,11.0,59,0.00,,,0.00,,2013-05-16 20:51:00,
2013-05-16 17:00:00,78.0,-99.9,-100.00,North,9,4.0,11.0,59,0.00,,,0.00,,2013-05-16 21:00:00,
2013-05-16 17:10:00,-999.0,-99.9,-100.00,North,9,4.0,11.0,59,0.00,,,0.00,,2013-05-16 21:10:00,
2013-05-16 17:16:00,72.0,60.0,-100.00,South,187,5.0,11.0,67,0.00,,,0.00,,2013-05-16 21:16:00,
2013-05-16 18:01:00,-999.0,-99.9,-100.00,South,187,5.0,11.0,67,0.00,,,0.00,,2013-05-16 22:01:00,
2013-05-16 18:08:00,72.0,60.0,-100.00,South,187,5.0,11.0,67,0.00,,,0.00,,2013-05-16 22:08:00,
2013-05-16 18:16:00,70.0,67.0,-100.00,NW,306,1.0,8.0,91,0.02,,,0.02,,2013-05-16 22:16:00,
2013-05-16 18:51:00,70.0,67.0,-100.00,NW,306,1.0,8.0,91,0.02,,,0.02,,2013-05-16 22:51:00,
2013-05-16 19:01:00,70.0,67.0,-100.00,NW,306,1.0,8.0,91,0.02,,,0.02,,2013-05-16 23:01:00,
2013-05-16 19:07:00,70.0,67.0,-100.00,NW,306,1.0,8.0,91,0.02,,,0.02,,2013-05-16 23:07:00,
2013-05-16 19:45:00,69.0,67.0,-100.00,East,83,1.0,6.0,92,0.00,,,0.02,,2013-05-16 23:45:00,
2013-05-16 19:54:00,69.0,67.0,-100.00,East,83,1.0,6.0,92,0.00,,,0.02,,2013-05-16 23:54:00,
2013-05-16 20:03:00,69.0,67.0,-100.00,East,83,1.0,6.0,92,0.00,,,0.02,,2013-05-17 00:03:00,
2013-05-16 20:13:00,69.0,67.0,-100.00,East,83,1.0,6.0,92,0.00,,,0.02,,2013-05-17 00:13:00,
2013-05-16 20:44:00,65.0,64.0,-100.00,NNE,30,1.0,3.0,96,0.00,,,0.02,,2013-05-17 00:44:00,
2013-05-16 20:53:00,65.0,64.0,-100.00,NNE,30,1.0,3.0,96,0.00,,,0.02,,2013-05-17 00:53:00,
2013-05-16 21:03:00,65.0,64.0,-100.00,NNE,30,1.0,3.0,96,0.00,,,0.02,,2013-05-17 01:03:00,
2013-05-16 21:12:00,65.0,64.0,-100.00,NNE,30,1.0,3.0,96,0.00,,,0.02,,2013-05-17 01:12:00,
2013-05-16 21:44:00,63.0,62.0,-100.00,NE,55,0.0,0.0,98,0.00,,,0.02,,2013-05-17 01:44:00,
2013-05-16 21:53:00,63.0,62.0,-100.00,NE,55,0.0,0.0,98,0.00,,,0.02,,2013-05-17 01:53:00,
2013-05-16 22:02:00,63.0,62.0,-100.00,NE,55,0.0,0.0,98,0.00,,,0.02,,2013-05-17 02:02:00,
2013-05-16 22:11:00,63.0,62.0,-100.00,NE,55,0.0,0.0,98,0.00,,,0.02,,2013-05-17 02:11:00,
2013-05-16 22:33:00,62.0,62.0,-100.00,WNW,298,0.0,0.0,99,0.00,,,0.02,,2013-05-17 02:33:00,
2013-05-16 22:42:00,62.0,62.0,-100.00,WNW,298,0.0,0.0,99,0.00,,,0.02,,2013-05-17 02:42:00,
2013-05-16 22:53:00,62.0,62.0,-100.00,WNW,298,0.0,0.0,99,0.00,,,0.02,,2013-05-17 02:53:00,
2013-05-16 23:02:00,62.0,62.0,-100.00,WNW,298,0.0,0.0,99,0.00,,,0.02,,2013-05-17 03:02:00,
2013-05-16 23:11:00,62.0,62.0,-100.00,WNW,298,0.0,0.0,99,0.00,,,0.02,,2013-05-17 03:11:00,
2013-05-16 23:43:00,61.0,61.0,-100.00,South,187,0.0,0.0,99,0.00,,,0.02,,2013-05-17 03:43:00,
2013-05-16 23:53:00,61.0,61.0,-100.00,South,187,0.0,0.0,99,0.00,,,0.02,,2013-05-17 03:53:00,